Time;durP1;ratioP1;P1;durP2;ratioP2;P2;SDS_P1;SDS_P2;PMS_P1;PMS_P2;Temp;Humidity;BMP_temperature;BMP_pressure;BME280_temperature;BME280_humidity;BME280_pressure;Samples;Min_cycle;Max_cycle;Signal;HPM_P1;HPM_P2
2022/05/24 00:00:30;;;;;;;12.70;6.03;;;13.10;99.90;;;;;;5051685;28;20465;-82
2022/05/24 00:02:55;;;;;;;13.65;5.95;;;13.00;99.90;;;;;;5051027;28;20059;-82
2022/05/24 00:05:23;;;;;;;12.77;5.95;;;13.00;99.90;;;;;;5052272;28;20492;-81
2022/05/24 00:07:49;;;;;;;12.68;6.18;;;12.90;99.90;;;;;;5049936;28;20045;-81
2022/05/24 00:10:19;;;;;;;15.48;6.80;;;13.00;99.90;;;;;;5051289;28;20049;-81
2022/05/24 00:12:45;;;;;;;13.85;6.65;;;12.90;99.90;;;;;;5050811;28;20520;-82
2022/05/24 00:15:19;;;;;;;12.82;6.38;;;12.90;99.90;;;;;;5050065;28;20052;-82
2022/05/24 00:17:50;;;;;;;12.32;6.93;;;12.90;99.90;;;;;;5052775;28;20036;-81
2022/05/24 00:20:16;;;;;;;12.52;7.10;;;12.90;99.90;;;;;;5054772;28;20144;-82
2022/05/24 00:22:42;;;;;;;13.27;7.22;;;13.00;99.90;;;;;;5055128;28;20124;-81
2022/05/24 00:25:08;;;;;;;13.38;6.93;;;13.00;99.90;;;;;;5054841;28;20395;-82
2022/05/24 00:27:34;;;;;;;16.02;6.63;;;12.80;99.90;;;;;;5054777;28;20041;-81
2022/05/24 00:30:00;;;;;;;12.23;6.60;;;12.80;99.90;;;;;;5053715;28;20056;-82
2022/05/24 00:32:25;;;;;;;16.02;7.15;;;12.80;99.90;;;;;;5056011;28;20045;-82
2022/05/24 00:34:51;;;;;;;13.00;7.68;;;12.90;99.90;;;;;;5054140;28;20053;-82
2022/05/24 00:37:20;;;;;;;15.32;8.25;;;12.70;99.90;;;;;;5053684;28;20052;-82
2022/05/24 00:39:47;;;;;;;15.40;8.15;;;12.80;99.90;;;;;;5053925;28;20084;-82
2022/05/24 00:42:17;;;;;;;16.65;9.55;;;12.80;99.90;;;;;;5053670;28;20052;-82
2022/05/24 00:44:48;;;;;;;19.52;10.95;;;12.70;99.90;;;;;;5054337;28;20396;-82
2022/05/24 00:47:30;;;;;;;19.27;11.75;;;12.70;99.90;;;;;;5053937;28;20045;-82
2022/05/24 00:49:59;;;;;;;22.55;12.68;;;12.80;99.90;;;;;;5054703;28;20041;-82
2022/05/24 00:52:33;;;;;;;22.02;13.32;;;12.70;99.90;;;;;;5055253;28;20503;-82
2022/05/24 00:55:00;;;;;;;22.77;12.93;;;12.80;99.90;;;;;;5054929;28;20397;-82
2022/05/24 00:57:35;;;;;;;22.13;13.60;;;12.80;99.90;;;;;;5054305;28;20045;-82
2022/05/24 01:00:05;;;;;;;20.88;13.13;;;12.70;99.90;;;;;;5055212;28;20056;-82
2022/05/24 01:02:30;;;;;;;21.77;13.20;;;12.80;99.90;;;;;;5055124;28;20477;-82
2022/05/24 01:04:57;;;;;;;19.65;12.50;;;12.70;99.90;;;;;;5054431;28;20045;-82
2022/05/24 01:07:23;;;;;;;21.60;12.65;;;12.60;99.90;;;;;;5055312;28;20041;-82
2022/05/24 01:10:00;;;;;;;19.83;11.48;;;12.70;99.90;;;;;;5053442;28;20107;-82
2022/05/24 01:12:58;;;;;;;18.50;11.05;;;12.70;99.90;;;;;;5053108;28;20480;-82
2022/05/24 01:15:25;;;;;;;21.67;11.23;;;12.70;99.90;;;;;;5051163;28;20049;-82
2022/05/24 01:17:52;;;;;;;18.80;10.82;;;12.60;99.90;;;;;;5052475;28;20049;-82
2022/05/24 01:20:18;;;;;;;18.77;10.65;;;12.50;99.90;;;;;;5054839;28;20059;-82
2022/05/24 01:22:59;;;;;;;19.20;10.73;;;12.60;99.90;;;;;;5054728;28;20045;-81
2022/05/24 01:25:37;;;;;;;19.63;10.50;;;12.50;99.90;;;;;;5052491;28;20041;-81
2022/05/24 01:28:13;;;;;;;17.77;10.70;;;12.40;99.90;;;;;;5054478;28;20048;-81
2022/05/24 01:30:38;;;;;;;19.13;10.23;;;12.40;99.90;;;;;;5054705;28;20049;-82
2022/05/24 01:38:34;;;;;;;19.10;10.25;;;12.20;99.90;;;;;;5052497;28;20053;-81
2022/05/24 01:41:00;;;;;;;17.48;9.68;;;12.10;99.90;;;;;;5053917;28;20061;-81
2022/05/24 01:43:26;;;;;;;17.92;9.73;;;12.10;99.90;;;;;;5053333;28;20057;-81
2022/05/24 01:46:00;;;;;;;18.50;10.15;;;12.10;99.90;;;;;;5053025;28;20488;-81
2022/05/24 01:48:35;;;;;;;19.40;10.40;;;12.10;99.90;;;;;;5054365;28;20106;-81
2022/05/24 01:51:04;;;;;;;19.42;9.80;;;12.00;99.90;;;;;;5052746;28;20065;-81
2022/05/24 01:53:42;;;;;;;19.05;10.55;;;12.00;99.90;;;;;;5052368;28;20133;-82
2022/05/24 01:56:23;;;;;;;17.95;10.43;;;12.00;99.90;;;;;;5054479;28;20124;-82
2022/05/24 01:58:53;;;;;;;20.58;11.23;;;12.00;99.90;;;;;;5054100;28;20045;-81
2022/05/24 02:01:50;;;;;;;19.25;10.88;;;12.00;99.90;;;;;;5053368;28;20095;-82
2022/05/24 02:04:18;;;;;;;20.05;10.80;;;12.00;99.90;;;;;;5053609;28;20132;-82
2022/05/24 02:06:44;;;;;;;18.90;11.05;;;12.00;99.90;;;;;;5052473;28;20041;-82
2022/05/24 02:09:11;;;;;;;21.10;11.07;;;11.90;99.90;;;;;;5052976;28;20508;-81
2022/05/24 02:11:37;;;;;;;22.02;12.23;;;11.90;99.90;;;;;;5052585;28;20488;-81
2022/05/24 02:14:21;;;;;;;21.92;12.63;;;12.00;99.90;;;;;;5053042;28;20043;-82
2022/05/24 02:16:57;;;;;;;24.30;12.65;;;12.00;99.90;;;;;;5052332;28;20565;-81
2022/05/24 02:19:24;;;;;;;23.23;13.60;;;12.00;99.90;;;;;;5052671;28;20076;-81
2022/05/24 02:21:55;;;;;;;25.80;14.13;;;12.20;99.90;;;;;;5052801;28;20041;-81
2022/05/24 02:24:24;;;;;;;28.60;15.63;;;12.20;99.90;;;;;;5053805;28;20032;-81
2022/05/24 02:26:50;;;;;;;30.63;16.00;;;12.30;99.90;;;;;;5052254;28;20048;-82
2022/05/24 02:29:17;;;;;;;26.85;15.85;;;12.30;99.90;;;;;;5051486;28;20065;-81
2022/05/24 02:31:43;;;;;;;28.70;17.33;;;12.40;99.90;;;;;;5051094;28;20048;-82
2022/05/24 02:34:09;;;;;;;30.00;17.17;;;12.40;99.90;;;;;;5053583;28;20044;-81
2022/05/24 02:36:35;;;;;;;33.80;18.42;;;12.40;99.90;;;;;;5052820;28;20033;-81
2022/05/24 02:39:01;;;;;;;33.55;18.23;;;12.40;99.90;;;;;;5053172;28;20041;-82
2022/05/24 02:41:31;;;;;;;34.33;18.50;;;12.50;99.90;;;;;;5051318;28;20049;-81
2022/05/24 02:43:59;;;;;;;35.08;19.35;;;12.50;99.90;;;;;;5051186;28;20049;-81
2022/05/24 02:46:25;;;;;;;34.80;19.80;;;12.60;99.90;;;;;;5053165;28;20099;-82
2022/05/24 02:48:51;;;;;;;35.20;20.00;;;12.60;99.90;;;;;;5052362;28;20476;-81
2022/05/24 02:51:17;;;;;;;37.45;20.45;;;12.60;99.90;;;;;;5053192;28;20488;-82
2022/05/24 02:53:44;;;;;;;34.10;20.15;;;12.70;99.90;;;;;;5053114;28;20048;-82
2022/05/24 02:56:10;;;;;;;35.30;20.92;;;12.70;99.90;;;;;;5052320;28;20514;-81
2022/05/24 02:58:37;;;;;;;34.47;20.20;;;12.60;99.90;;;;;;5051768;28;20090;-82
2022/05/24 03:01:09;;;;;;;38.10;21.60;;;12.80;99.90;;;;;;5051337;28;20099;-82
2022/05/24 03:03:35;;;;;;;36.33;19.90;;;12.70;99.90;;;;;;5052496;28;20037;-82
2022/05/24 03:06:00;;;;;;;38.67;21.30;;;12.80;99.90;;;;;;5052733;28;20048;-82
2022/05/24 03:11:10;;;;;;;36.33;21.65;;;12.80;99.90;;;;;;5052371;28;20045;-82
2022/05/24 03:16:20;;;;;;;35.58;20.98;;;12.80;99.90;;;;;;5052795;28;20049;-81
2022/05/24 03:18:46;;;;;;;38.75;21.77;;;12.90;99.90;;;;;;5050735;28;20413;-82
2022/05/24 03:21:11;;;;;;;41.47;22.25;;;12.90;99.90;;;;;;5052842;28;20135;-81
2022/05/24 03:23:37;;;;;;;37.13;22.20;;;12.90;99.90;;;;;;5051649;28;20044;-81
2022/05/24 03:26:04;;;;;;;37.08;23.13;;;13.00;99.90;;;;;;5051635;28;20083;-81
2022/05/24 03:28:30;;;;;;;39.67;22.50;;;13.00;99.90;;;;;;5052568;28;20037;-81
2022/05/24 03:30:55;;;;;;;36.60;23.05;;;13.00;99.90;;;;;;5051594;28;20041;-82
2022/05/24 03:33:22;;;;;;;35.58;22.02;;;13.10;99.90;;;;;;5051587;28;20049;-82
2022/05/24 03:35:47;;;;;;;38.38;22.77;;;13.00;99.90;;;;;;5051147;28;20049;-82
2022/05/24 03:38:13;;;;;;;39.15;23.02;;;13.10;99.90;;;;;;5052061;28;20045;-81
2022/05/24 03:40:39;;;;;;;39.38;23.10;;;13.10;99.90;;;;;;5052486;28;20041;-82
2022/05/24 03:43:11;;;;;;;38.38;22.67;;;13.20;99.90;;;;;;5052469;28;20041;-82
2022/05/24 03:45:37;;;;;;;40.07;22.93;;;13.10;99.90;;;;;;5050738;28;20037;-82
2022/05/24 03:48:03;;;;;;;38.25;23.63;;;13.10;99.90;;;;;;5052191;28;20484;-83
2022/05/24 03:50:28;;;;;;;36.22;23.30;;;13.10;99.90;;;;;;5052702;28;20392;-81
2022/05/24 03:52:54;;;;;;;33.33;20.75;;;13.20;99.90;;;;;;5052988;28;20067;-82
2022/05/24 03:55:19;;;;;;;36.55;21.88;;;13.20;99.90;;;;;;5056427;28;20068;-82
2022/05/24 03:58:01;;;;;;;32.83;20.77;;;13.20;99.90;;;;;;5055983;28;20053;-82
2022/05/24 04:00:40;;;;;;;32.85;21.33;;;13.20;99.90;;;;;;5055337;28;20399;-82
2022/05/24 04:03:06;;;;;;;30.20;20.02;;;13.20;99.90;;;;;;5056117;28;20041;-82
2022/05/24 04:05:32;;;;;;;34.22;21.15;;;13.20;99.90;;;;;;5055123;28;20063;-82
2022/05/24 04:07:59;;;;;;;30.58;20.00;;;13.30;99.90;;;;;;5053886;28;20057;-82
2022/05/24 04:10:25;;;;;;;32.92;20.00;;;13.30;99.90;;;;;;5056442;28;20060;-82
2022/05/24 04:12:51;;;;;;;31.83;20.90;;;13.30;99.90;;;;;;5054557;28;20496;-82
2022/05/24 04:15:17;;;;;;;32.90;20.55;;;13.30;99.90;;;;;;5055423;28;20044;-82
2022/05/24 04:17:43;;;;;;;32.65;19.80;;;13.40;99.90;;;;;;5055770;28;20086;-81
2022/05/24 04:20:10;;;;;;;35.95;21.27;;;13.30;99.90;;;;;;5055652;28;20049;-83
2022/05/24 04:22:35;;;;;;;32.55;20.50;;;13.30;99.90;;;;;;5055304;28;20110;-82
2022/05/24 04:25:01;;;;;;;34.05;21.27;;;13.30;99.90;;;;;;5055897;28;20435;-82
2022/05/24 04:27:27;;;;;;;33.58;21.05;;;13.40;99.90;;;;;;5055395;28;20040;-82
2022/05/24 04:29:53;;;;;;;34.45;19.83;;;13.40;99.90;;;;;;5055611;28;20500;-82
2022/05/24 04:32:20;;;;;;;32.70;20.45;;;13.30;99.90;;;;;;5055853;28;20080;-82
2022/05/24 04:34:46;;;;;;;31.92;20.23;;;13.30;99.90;;;;;;5054957;28;20049;-82
2022/05/24 04:37:11;;;;;;;35.78;21.63;;;13.30;99.90;;;;;;5054309;28;20048;-82
2022/05/24 04:39:38;;;;;;;37.30;22.02;;;13.40;99.90;;;;;;5055906;28;20044;-82
2022/05/24 04:42:19;;;;;;;36.20;21.73;;;13.40;99.90;;;;;;5054504;28;20116;-82
2022/05/24 04:44:54;;;;;;;34.88;21.23;;;13.40;99.90;;;;;;5055561;28;20404;-82
2022/05/24 04:47:21;;;;;;;34.38;20.63;;;13.40;99.90;;;;;;5054499;28;20049;-82
2022/05/24 04:49:53;;;;;;;34.95;21.88;;;13.30;99.90;;;;;;5052943;28;20045;-82
2022/05/24 04:52:20;;;;;;;33.42;19.67;;;13.40;99.90;;;;;;5055610;28;20037;-82
2022/05/24 04:54:46;;;;;;;31.58;19.58;;;13.30;99.90;;;;;;5053884;28;20505;-81
2022/05/24 04:57:13;;;;;;;37.60;21.05;;;13.30;99.90;;;;;;5054834;28;20087;-82
2022/05/24 04:59:38;;;;;;;30.58;20.23;;;13.20;99.90;;;;;;5055449;28;20040;-82
2022/05/24 05:02:05;;;;;;;31.15;19.17;;;13.30;99.90;;;;;;5055002;28;20041;-82
2022/05/24 05:04:31;;;;;;;33.35;18.95;;;13.20;99.90;;;;;;5052301;28;20080;-83
2022/05/24 05:06:59;;;;;;;31.80;17.80;;;13.20;99.90;;;;;;5054954;28;20136;-82
2022/05/24 05:09:25;;;;;;;32.92;19.42;;;13.20;99.90;;;;;;5054756;28;20079;-82
2022/05/24 05:11:51;;;;;;;31.20;19.05;;;13.20;99.90;;;;;;5053831;28;20148;-83
2022/05/24 05:14:16;;;;;;;36.88;19.75;;;13.20;99.90;;;;;;5055063;28;20488;-83
2022/05/24 05:16:42;;;;;;;32.72;19.27;;;13.20;99.90;;;;;;5054035;28;20734;-83
2022/05/24 05:19:11;;;;;;;30.67;19.95;;;13.20;99.90;;;;;;5054725;28;20045;-83
2022/05/24 05:21:38;;;;;;;35.28;19.27;;;13.20;99.90;;;;;;5055097;28;20045;-83
2022/05/24 05:24:06;;;;;;;33.03;20.10;;;13.10;99.90;;;;;;5052575;28;20041;-82
2022/05/24 05:26:31;;;;;;;32.30;18.25;;;13.10;99.90;;;;;;5053695;28;20135;-82
2022/05/24 05:28:57;;;;;;;29.70;18.75;;;13.10;99.90;;;;;;5054746;28;20120;-82
2022/05/24 05:31:25;;;;;;;28.88;18.75;;;13.10;99.90;;;;;;5053958;28;20372;-82
2022/05/24 05:33:51;;;;;;;32.97;18.90;;;13.10;99.90;;;;;;5053150;28;20053;-83
2022/05/24 05:36:21;;;;;;;28.35;17.55;;;13.00;99.90;;;;;;5054736;28;20159;-82
2022/05/24 05:38:47;;;;;;;27.25;17.77;;;13.00;99.90;;;;;;5052058;28;20412;-83
2022/05/24 05:41:18;;;;;;;30.17;18.50;;;13.00;99.90;;;;;;5054013;28;20535;-83
2022/05/24 05:43:44;;;;;;;30.67;19.60;;;13.00;99.90;;;;;;5045533;28;20089;-82
2022/05/24 05:46:11;;;;;;;29.35;18.33;;;13.10;99.90;;;;;;5048959;28;20488;-82
2022/05/24 05:48:37;;;;;;;29.60;18.60;;;13.20;99.90;;;;;;5053217;28;20045;-82
2022/05/24 05:51:04;;;;;;;29.15;18.15;;;13.20;99.90;;;;;;5053960;28;20388;-83
2022/05/24 05:53:29;;;;;;;29.23;18.02;;;13.20;99.90;;;;;;5053508;28;20120;-85
2022/05/24 05:55:55;;;;;;;28.73;18.50;;;13.20;99.90;;;;;;5052599;28;20606;-87
2022/05/24 05:58:21;;;;;;;31.55;18.33;;;13.30;99.90;;;;;;5054131;28;20037;-87
2022/05/24 06:00:49;;;;;;;28.05;18.30;;;13.30;99.90;;;;;;5053133;28;20040;-86
2022/05/24 06:03:16;;;;;;;31.75;18.20;;;13.30;99.90;;;;;;5054443;28;20045;-87
2022/05/24 06:05:51;;;;;;;33.35;17.77;;;13.30;99.90;;;;;;5053239;28;20045;-86
2022/05/24 06:08:18;;;;;;;31.83;18.55;;;13.30;99.90;;;;;;5054337;28;20044;-86
2022/05/24 06:10:44;;;;;;;29.40;17.73;;;13.20;99.90;;;;;;5054062;28;20045;-85
2022/05/24 06:13:10;;;;;;;27.30;16.70;;;13.30;99.90;;;;;;5053169;28;20145;-86
2022/05/24 06:15:37;;;;;;;32.30;17.92;;;13.30;99.90;;;;;;5054117;28;20072;-85
2022/05/24 06:18:03;;;;;;;31.63;17.30;;;13.50;99.90;;;;;;5053776;28;20051;-85
2022/05/24 06:20:31;;;;;;;29.38;17.80;;;13.70;99.90;;;;;;5053084;28;20124;-86
2022/05/24 06:22:57;;;;;;;26.65;16.80;;;13.70;99.90;;;;;;5053532;28;20048;-89
2022/05/24 06:25:25;;;;;;;24.17;16.25;;;13.70;99.90;;;;;;5053818;28;20037;-86
2022/05/24 06:27:52;;;;;;;25.20;16.63;;;13.60;99.90;;;;;;5051859;28;20374;-85
2022/05/24 06:30:20;;;;;;;28.88;16.40;;;13.60;99.90;;;;;;5052253;28;20370;-85
2022/05/24 06:32:46;;;;;;;25.17;15.63;;;13.50;99.90;;;;;;5051718;28;20053;-85
2022/05/24 06:35:12;;;;;;;26.45;16.05;;;13.60;99.90;;;;;;5053016;28;20037;-85
2022/05/24 06:37:38;;;;;;;26.25;15.90;;;13.50;99.90;;;;;;5051412;28;20049;-84
2022/05/24 06:40:04;;;;;;;26.73;15.75;;;13.50;99.90;;;;;;5052773;28;20047;-85
2022/05/24 06:42:30;;;;;;;24.60;15.50;;;13.50;99.90;;;;;;5050811;28;20080;-85
2022/05/24 06:44:56;;;;;;;24.92;15.57;;;13.40;99.90;;;;;;5052039;28;20092;-86
2022/05/24 06:47:22;;;;;;;24.20;13.98;;;13.50;99.90;;;;;;5052999;28;20044;-87
2022/05/24 06:49:48;;;;;;;26.02;14.48;;;13.50;99.90;;;;;;5049904;28;20376;-86
2022/05/24 06:52:15;;;;;;;23.38;15.13;;;13.50;99.90;;;;;;5041439;28;20048;-86
2022/05/24 06:54:40;;;;;;;23.65;14.48;;;13.60;99.90;;;;;;5041195;28;20495;-85
2022/05/24 06:57:06;;;;;;;21.15;13.70;;;13.50;99.90;;;;;;5049310;28;20112;-85
2022/05/24 07:02:25;;;;;;;;;;;13.60;99.90;;;;;;5052919;28;20068;-89
2022/05/24 07:04:57;;;;;;;27.33;14.30;;;13.40;99.90;;;;;;5052018;28;19921;-87
2022/05/24 07:07:24;;;;;;;24.10;12.95;;;13.40;99.90;;;;;;5052101;28;20084;-87
2022/05/24 07:09:51;;;;;;;22.75;13.25;;;13.30;99.90;;;;;;5050906;28;20044;-87
2022/05/24 07:12:18;;;;;;;22.08;13.57;;;13.30;99.90;;;;;;5051355;28;20102;-87
2022/05/24 07:14:44;;;;;;;23.58;13.93;;;13.30;99.90;;;;;;5050529;28;20048;-88
2022/05/24 07:17:10;;;;;;;22.40;13.10;;;13.30;99.90;;;;;;5052013;28;20041;-88
2022/05/24 07:19:35;;;;;;;23.08;12.38;;;13.40;99.90;;;;;;5052592;28;20159;-87
2022/05/24 07:22:01;;;;;;;22.00;13.07;;;13.30;99.90;;;;;;5035076;28;20115;-87
2022/05/24 07:24:28;;;;;;;21.88;13.27;;;13.40;99.90;;;;;;5030977;28;20175;-87
2022/05/24 07:26:55;;;;;;;22.00;13.45;;;13.50;99.90;;;;;;5030862;28;20084;-87
2022/05/24 07:29:22;;;;;;;21.63;13.10;;;14.10;99.90;;;;;;5032834;28;20045;-86
2022/05/24 07:31:47;;;;;;;19.75;12.95;;;13.70;99.90;;;;;;5032095;28;20045;-86
2022/05/24 07:34:13;;;;;;;20.90;12.85;;;13.80;99.90;;;;;;5032795;28;20041;-85
2022/05/24 07:36:38;;;;;;;21.88;12.50;;;13.80;99.90;;;;;;5032094;28;20447;-92
2022/05/24 07:39:04;;;;;;;24.02;12.52;;;13.80;99.90;;;;;;5030546;28;20128;-87
2022/05/24 07:46:58;;;;;;;20.08;11.93;;;13.80;99.90;;;;;;5031414;28;20116;-88
2022/05/24 07:49:24;;;;;;;20.75;12.30;;;13.80;99.90;;;;;;5031497;28;20045;-87
2022/05/24 07:51:53;;;;;;;18.30;11.30;;;13.80;99.90;;;;;;5030263;28;20180;-89
2022/05/24 07:54:18;;;;;;;23.20;13.02;;;13.90;99.90;;;;;;5036293;28;20119;-88
2022/05/24 07:56:44;;;;;;;19.55;12.27;;;14.00;99.90;;;;;;5032105;28;20099;-89
2022/05/24 07:59:10;;;;;;;18.52;11.77;;;13.90;99.90;;;;;;5030153;28;20049;-88
2022/05/24 08:01:36;;;;;;;20.27;11.40;;;13.90;99.90;;;;;;5031157;28;20055;-88
2022/05/24 08:04:03;;;;;;;19.20;11.45;;;13.80;99.90;;;;;;5032367;28;20048;-89
2022/05/24 08:06:28;;;;;;;21.45;11.45;;;13.80;99.90;;;;;;5031983;28;20050;-88
2022/05/24 08:08:54;;;;;;;23.30;11.80;;;13.70;99.90;;;;;;5031482;28;20052;-88
2022/05/24 08:11:20;;;;;;;19.45;11.20;;;13.60;99.90;;;;;;5037543;28;20520;-87
2022/05/24 08:13:47;;;;;;;18.67;11.18;;;13.60;99.90;;;;;;5042124;28;20049;-87
2022/05/24 08:16:12;;;;;;;17.80;10.25;;;13.70;99.90;;;;;;5040699;28;20037;-87
2022/05/24 08:18:38;;;;;;;17.75;10.55;;;13.80;99.90;;;;;;5040791;28;20055;-89
2022/05/24 08:21:04;;;;;;;18.08;9.82;;;14.10;99.90;;;;;;5042380;28;20403;-87
2022/05/24 08:23:30;;;;;;;18.65;10.30;;;14.40;99.90;;;;;;5040622;28;20129;-89
2022/05/24 08:25:56;;;;;;;17.70;10.27;;;14.40;99.90;;;;;;5042160;28;20041;-87
2022/05/24 08:28:22;;;;;;;18.17;10.15;;;14.40;99.90;;;;;;5040954;28;20037;-88
2022/05/24 08:30:50;;;;;;;18.02;11.10;;;14.50;99.90;;;;;;5040881;28;20041;-86
2022/05/24 08:33:16;;;;;;;18.50;10.50;;;14.50;99.90;;;;;;5041271;28;20041;-85
2022/05/24 08:35:43;;;;;;;20.50;10.77;;;14.60;99.90;;;;;;5040314;28;20040;-88
2022/05/24 08:38:09;;;;;;;16.27;9.82;;;14.70;99.90;;;;;;5042063;28;20033;-89
2022/05/24 08:40:37;;;;;;;18.27;10.35;;;15.00;99.90;;;;;;5044518;28;20049;-86
2022/05/24 08:43:09;;;;;;;15.90;9.52;;;15.10;99.90;;;;;;5042741;28;20450;-88
2022/05/24 08:48:46;;;;;;;15.48;9.40;;;15.10;99.90;;;;;;5038865;28;20045;-91
2022/05/24 08:51:21;;;;;;;20.08;9.63;;;15.00;99.90;;;;;;5037928;28;20063;-89
2022/05/24 08:53:51;;;;;;;15.73;9.63;;;15.00;99.90;;;;;;5034006;28;20045;-91
2022/05/24 08:56:30;;;;;;;14.88;8.30;;;15.10;99.90;;;;;;5034853;28;20124;-89
2022/05/24 08:59:02;;;;;;;13.88;8.57;;;15.00;99.90;;;;;;5034364;28;20424;-92
2022/05/24 09:01:32;;;;;;;16.25;8.68;;;15.00;99.90;;;;;;5034409;28;20393;-91
2022/05/24 09:03:59;;;;;;;13.60;7.95;;;15.20;99.90;;;;;;5035042;28;20034;-90
2022/05/24 09:06:38;;;;;;;14.18;8.00;;;15.60;99.90;;;;;;5037090;28;20543;-87
2022/05/24 09:09:13;;;;;;;15.73;8.77;;;15.60;99.90;;;;;;5045206;28;20132;-87
2022/05/24 09:12:00;;;;;;;14.90;8.23;;;15.90;99.90;;;;;;5046078;28;20495;-87
2022/05/24 09:14:36;;;;;;;13.35;7.32;;;16.10;99.90;;;;;;5044156;28;20042;-87
2022/05/24 09:17:20;;;;;;;14.20;7.68;;;16.30;99.90;;;;;;5044078;28;20045;-87
2022/05/24 09:19:46;;;;;;;13.05;6.07;;;16.30;99.90;;;;;;5044356;28;20049;-87
2022/05/24 09:22:12;;;;;;;11.43;6.40;;;16.60;99.90;;;;;;5042199;28;20052;-88
2022/05/24 09:24:42;;;;;;;12.25;6.80;;;16.80;99.90;;;;;;5044551;28;20037;-87
2022/05/24 09:27:09;;;;;;;11.70;6.50;;;16.80;99.90;;;;;;5044091;28;20100;-87
2022/05/24 09:29:53;;;;;;;13.05;6.00;;;17.00;99.90;;;;;;5041644;28;20457;-87
2022/05/24 09:32:18;;;;;;;9.25;5.00;;;17.00;99.90;;;;;;5044199;28;20038;-88
2022/05/24 09:34:44;;;;;;;11.32;4.93;;;17.10;99.90;;;;;;5040229;28;20047;-89
2022/05/24 09:37:22;;;;;;;10.23;4.53;;;17.00;99.90;;;;;;5040577;28;20038;-91
2022/05/24 09:40:06;;;;;;;10.77;5.25;;;16.90;99.90;;;;;;5036284;28;20102;-86
2022/05/24 09:42:36;;;;;;;10.20;5.38;;;16.70;99.90;;;;;;5037764;28;20114;-89
2022/05/24 09:45:24;;;;;;;11.38;5.13;;;16.50;99.90;;;;;;5044097;28;20131;-90
2022/05/24 09:47:54;;;;;;;10.75;5.20;;;16.40;99.90;;;;;;5041922;28;20060;-88
2022/05/24 09:50:29;;;;;;;10.80;5.72;;;16.40;99.90;;;;;;5045205;28;20075;-89
2022/05/24 09:53:04;;;;;;;11.13;6.13;;;16.40;99.90;;;;;;5037801;28;20033;-88
2022/05/24 09:55:36;;;;;;;11.82;6.07;;;16.30;99.90;;;;;;5038350;28;20060;-88
2022/05/24 09:58:28;;;;;;;13.50;6.15;;;16.30;99.90;;;;;;5044847;28;20042;-87
2022/05/24 10:01:07;;;;;;;9.80;5.03;;;16.10;99.90;;;;;;5039008;28;20056;-88
2022/05/24 10:03:40;;;;;;;12.07;5.50;;;16.00;99.90;;;;;;5032910;28;20485;-88
2022/05/24 10:06:11;;;;;;;;;;;15.90;99.90;;;;;;5033626;28;20454;-88
2022/05/24 10:08:47;;;;;;;13.10;6.65;;;15.50;99.90;;;;;;5036251;28;20020;-89
2022/05/24 10:11:17;;;;;;;13.43;6.88;;;15.10;99.90;;;;;;5046772;28;20057;-90
2022/05/24 10:13:53;;;;;;;15.38;8.05;;;14.70;99.90;;;;;;5048260;28;20045;-91
2022/05/24 10:16:36;;;;;;;12.40;6.20;;;14.40;99.90;;;;;;5054449;28;20401;-92
2022/05/24 10:19:36;;;;;;;12.93;5.37;;;13.90;99.90;;;;;;5058410;28;20076;-91
2022/05/24 10:22:26;;;;;;;9.80;4.82;;;13.50;99.90;;;;;;5065870;28;20267;-92
2022/05/24 10:25:13;;;;;;;11.25;5.40;;;13.20;99.90;;;;;;5074704;28;20115;-91
2022/05/24 10:27:55;;;;;;;11.10;6.10;;;13.20;99.90;;;;;;5057997;28;20496;-92
2022/05/24 10:30:50;;;;;;;12.20;6.30;;;13.60;99.90;;;;;;5043502;28;20491;-93
2022/05/24 10:40:15;;;;;;;13.43;7.40;;;15.10;99.90;;;;;;5035142;28;20050;-89
2022/05/24 10:43:07;;;;;;;11.93;7.30;;;15.40;99.90;;;;;;5029645;28;20511;-89
2022/05/24 10:45:50;;;;;;;14.07;8.30;;;15.40;99.90;;;;;;5032043;28;20072;-89
2022/05/24 10:48:35;;;;;;;13.55;7.53;;;15.30;99.90;;;;;;5032329;28;20049;-89
2022/05/24 10:51:11;;;;;;;13.82;7.60;;;14.90;99.90;;;;;;5031556;28;20144;-89
2022/05/24 10:53:53;;;;;;;14.18;7.78;;;14.40;99.90;;;;;;5033097;28;20049;-90
2022/05/24 10:56:29;;;;;;;13.98;7.90;;;14.00;99.90;;;;;;5032580;28;20049;-91
2022/05/24 10:59:28;;;;;;;10.77;5.20;;;13.60;99.90;;;;;;5033065;28;20053;-88
2022/05/24 11:02:11;;;;;;;10.05;3.50;;;13.30;99.90;;;;;;5032388;28;20077;-88
2022/05/24 11:05:18;;;;;;;8.90;3.70;;;12.80;99.90;;;;;;5042156;28;20044;-86
2022/05/24 11:07:48;;;;;;;10.25;4.10;;;12.60;99.90;;;;;;4991999;28;20085;-87
2022/05/24 11:10:22;;;;;;;10.23;4.40;;;12.50;99.90;;;;;;5026282;28;20052;-88
2022/05/24 11:12:49;;;;;;;;;;;12.60;99.90;;;;;;5031196;28;20072;-86
2022/05/24 11:15:20;;;;;;;9.70;3.50;;;12.70;99.90;;;;;;5014155;28;19921;-87
2022/05/24 11:17:46;;;;;;;9.95;3.33;;;12.70;99.90;;;;;;5029427;28;20049;-88
2022/05/24 11:20:14;;;;;;;9.75;3.25;;;12.90;99.90;;;;;;5032307;28;20075;-88
2022/05/24 11:22:48;;;;;;;8.40;3.30;;;13.70;99.90;;;;;;5042384;28;20044;-89
2022/05/24 11:25:28;;;;;;;7.95;3.15;;;13.00;99.90;;;;;;5051317;28;20102;-89
2022/05/24 11:28:15;;;;;;;8.32;3.08;;;13.20;99.90;;;;;;5050340;28;20076;-88
2022/05/24 11:30:41;;;;;;;8.57;3.50;;;13.20;99.90;;;;;;5048888;28;20052;-88
2022/05/24 11:33:33;;;;;;;8.77;3.47;;;13.30;99.90;;;;;;5051122;28;20120;-89
2022/05/24 11:36:21;;;;;;;10.55;4.30;;;13.20;99.90;;;;;;5050480;28;20048;-87
2022/05/24 11:38:49;;;;;;;9.52;3.83;;;13.30;99.90;;;;;;5053009;28;20064;-88
2022/05/24 11:41:31;;;;;;;9.65;3.75;;;13.20;99.90;;;;;;5049018;28;20496;-87
2022/05/24 11:44:02;;;;;;;8.25;2.90;;;12.90;99.90;;;;;;5049784;28;20481;-87
2022/05/24 11:46:34;;;;;;;7.00;2.67;;;12.50;99.90;;;;;;5051778;28;20057;-88
2022/05/24 11:49:09;;;;;;;11.73;3.63;;;12.40;99.90;;;;;;5050286;28;20044;-88
2022/05/24 11:51:45;;;;;;;8.40;3.40;;;12.30;99.90;;;;;;5050301;28;20040;-87
2022/05/24 11:54:17;;;;;;;8.23;3.55;;;12.50;99.90;;;;;;5050708;28;20457;-88
2022/05/24 11:57:03;;;;;;;9.00;3.50;;;13.00;99.90;;;;;;5047823;28;20132;-85
2022/05/24 11:59:43;;;;;;;8.25;3.60;;;13.40;99.90;;;;;;5030368;28;20053;-88
2022/05/24 12:02:21;;;;;;;9.43;3.30;;;13.40;99.90;;;;;;5031439;28;20124;-88
2022/05/24 12:07:55;;;;;;;9.27;4.22;;;13.60;99.90;;;;;;5032004;28;20050;-87
2022/05/24 12:10:20;;;;;;;8.05;3.50;;;13.80;99.90;;;;;;5030858;28;20060;-87
2022/05/24 12:12:53;;;;;;;9.18;4.00;;;13.80;99.90;;;;;;5029865;28;20042;-87
2022/05/24 12:15:31;;;;;;;9.63;4.32;;;13.80;99.90;;;;;;5035510;28;20501;-87
2022/05/24 12:17:59;;;;;;;10.02;4.40;;;13.80;99.90;;;;;;5035466;28;20049;-87
2022/05/24 12:20:47;;;;;;;9.10;4.05;;;13.90;99.90;;;;;;5033579;28;20053;-86
2022/05/24 12:23:32;;;;;;;8.55;4.07;;;13.80;99.90;;;;;;5033354;28;20084;-88
2022/05/24 12:26:13;;;;;;;9.40;4.00;;;13.70;99.90;;;;;;5034047;28;20389;-86
2022/05/24 12:28:38;;;;;;;9.88;3.92;;;13.60;99.90;;;;;;5035573;28;20093;-87
2022/05/24 12:31:13;;;;;;;9.43;4.15;;;13.50;99.90;;;;;;5035080;28;20489;-86
2022/05/24 12:33:54;;;;;;;8.20;3.58;;;13.40;99.90;;;;;;5033405;28;20050;-87
2022/05/24 12:36:40;;;;;;;8.65;3.35;;;13.90;99.90;;;;;;5033952;28;20100;-86
2022/05/24 12:39:16;;;;;;;9.90;3.55;;;13.40;99.90;;;;;;5033793;28;20141;-87
2022/05/24 12:41:47;;;;;;;8.30;3.47;;;13.50;99.90;;;;;;5032737;28;20576;-86
2022/05/24 12:44:21;;;;;;;9.50;4.05;;;13.60;99.90;;;;;;5034168;28;20144;-87
2022/05/24 12:46:49;;;;;;;8.00;3.40;;;13.60;99.90;;;;;;5034198;28;20107;-86
2022/05/24 12:49:22;;;;;;;7.75;3.00;;;13.60;99.90;;;;;;5033823;28;20045;-91
2022/05/24 12:51:52;;;;;;;8.68;3.20;;;13.60;99.90;;;;;;5033850;28;20037;-91
2022/05/24 12:54:30;;;;;;;8.45;2.97;;;13.60;99.90;;;;;;5034469;28;20056;-89
2022/05/24 12:57:06;;;;;;;8.02;3.50;;;13.70;99.90;;;;;;5034752;28;20385;-90
2022/05/24 12:59:40;;;;;;;8.35;3.70;;;13.70;99.90;;;;;;5034159;28;20041;-89
2022/05/24 13:02:29;;;;;;;9.98;3.90;;;13.90;99.90;;;;;;5032441;28;20060;-89
2022/05/24 13:05:00;;;;;;;8.23;3.50;;;14.00;99.90;;;;;;5031480;28;20054;-88
2022/05/24 13:07:44;;;;;;;8.68;3.20;;;14.40;99.90;;;;;;5033113;28;20041;-89
2022/05/24 13:10:29;;;;;;;7.80;3.15;;;15.00;99.90;;;;;;5032568;28;20037;-89
2022/05/24 13:13:01;;;;;;;8.77;3.30;;;15.50;99.90;;;;;;5034034;28;20060;-89
2022/05/24 13:15:36;;;;;;;8.90;3.50;;;15.50;99.90;;;;;;5032762;28;20084;-90
2022/05/24 13:18:08;;;;;;;8.57;3.25;;;15.70;99.90;;;;;;5033558;28;20049;-88
2022/05/24 13:20:40;;;;;;;8.10;3.53;;;15.80;99.90;;;;;;5037000;28;20049;-89
2022/05/24 13:23:14;;;;;;;8.23;3.33;;;15.80;99.90;;;;;;5036735;28;20496;-89